sensor_id;sensor_type;location;lat;lon;timestamp;pressure;altitude;pressure_sealevel;temperature;humidity
17072;BME280;7731;50.720;6.912;2022-11-20T00:02:17;99689.72;;;3.43;100.00
17072;BME280;7731;50.720;6.912;2022-11-20T00:04:50;99698.38;;;3.35;100.00
17072;BME280;7731;50.720;6.912;2022-11-20T00:07:20;99693.75;;;2.84;100.00
17072;BME280;7731;50.720;6.912;2022-11-20T00:10:06;99685.66;;;2.70;100.00
17072;BME280;7731;50.720;6.912;2022-11-20T00:12:45;99689.63;;;2.80;100.00
17072;BME280;7731;50.720;6.912;2022-11-20T00:15:18;99691.63;;;3.01;100.00
17072;BME280;7731;50.720;6.912;2022-11-20T00:17:53;99684.03;;;3.01;100.00
17072;BME280;7731;50.720;6.912;2022-11-20T00:20:24;99679.28;;;3.20;100.00
17072;BME280;7731;50.720;6.912;2022-11-20T00:23:03;99692.13;;;3.14;100.00
17072;BME280;7731;50.720;6.912;2022-11-20T00:25:39;99685.66;;;3.02;100.00
17072;BME280;7731;50.720;6.912;2022-11-20T00:28:09;99683.06;;;3.38;100.00
17072;BME280;7731;50.720;6.912;2022-11-20T00:30:39;99679.06;;;3.61;100.00
17072;BME280;7731;50.720;6.912;2022-11-20T00:33:09;99678.88;;;3.67;100.00
17072;BME280;7731;50.720;6.912;2022-11-20T00:35:42;99678.06;;;3.35;100.00
17072;BME280;7731;50.720;6.912;2022-11-20T00:38:12;99686.94;;;3.19;100.00
17072;BME280;7731;50.720;6.912;2022-11-20T00:40:56;99685.50;;;3.09;100.00
17072;BME280;7731;50.720;6.912;2022-11-20T00:43:29;99680.22;;;3.18;100.00
17072;BME280;7731;50.720;6.912;2022-11-20T00:46:03;99678.72;;;3.11;100.00
17072;BME280;7731;50.720;6.912;2022-11-20T00:48:34;99678.06;;;3.02;100.00
17072;BME280;7731;50.720;6.912;2022-11-20T00:51:14;99675.34;;;3.09;100.00
17072;BME280;7731;50.720;6.912;2022-11-20T00:53:44;99675.69;;;2.96;100.00
17072;BME280;7731;50.720;6.912;2022-11-20T00:56:20;99669.41;;;3.10;100.00
17072;BME280;7731;50.720;6.912;2022-11-20T00:58:50;99666.47;;;3.25;100.00
17072;BME280;7731;50.720;6.912;2022-11-20T01:01:23;99662.09;;;3.62;100.00
17072;BME280;7731;50.720;6.912;2022-11-20T01:03:58;99656.16;;;3.31;100.00
17072;BME280;7731;50.720;6.912;2022-11-20T01:06:32;99674.34;;;2.83;100.00
17072;BME280;7731;50.720;6.912;2022-11-20T01:09:06;99668.56;;;3.11;100.00
17072;BME280;7731;50.720;6.912;2022-11-20T01:11:44;99675.78;;;2.92;100.00
17072;BME280;7731;50.720;6.912;2022-11-20T01:14:17;99684.19;;;2.59;100.00
17072;BME280;7731;50.720;6.912;2022-11-20T01:16:51;99677.22;;;2.69;100.00
17072;BME280;7731;50.720;6.912;2022-11-20T01:19:27;99689.56;;;2.47;100.00
17072;BME280;7731;50.720;6.912;2022-11-20T01:22:00;99677.84;;;2.43;100.00
17072;BME280;7731;50.720;6.912;2022-11-20T01:24:30;99665.44;;;2.66;100.00
17072;BME280;7731;50.720;6.912;2022-11-20T01:27:03;99669.81;;;2.94;100.00
17072;BME280;7731;50.720;6.912;2022-11-20T01:29:33;99683.75;;;2.43;100.00
17072;BME280;7731;50.720;6.912;2022-11-20T01:32:06;99673.34;;;2.54;100.00
17072;BME280;7731;50.720;6.912;2022-11-20T01:34:46;99678.81;;;2.72;100.00
17072;BME280;7731;50.720;6.912;2022-11-20T01:37:23;99679.03;;;2.64;100.00
17072;BME280;7731;50.720;6.912;2022-11-20T01:39:53;99680.94;;;2.54;100.00
17072;BME280;7731;50.720;6.912;2022-11-20T01:42:25;99680.75;;;2.96;100.00
17072;BME280;7731;50.720;6.912;2022-11-20T01:45:50;99668.16;;;3.26;100.00
17072;BME280;7731;50.720;6.912;2022-11-20T01:48:25;99667.13;;;3.00;100.00
17072;BME280;7731;50.720;6.912;2022-11-20T01:50:58;99670.75;;;2.90;100.00
17072;BME280;7731;50.720;6.912;2022-11-20T01:53:34;99671.06;;;2.78;100.00
17072;BME280;7731;50.720;6.912;2022-11-20T01:56:10;99667.19;;;2.64;100.00
17072;BME280;7731;50.720;6.912;2022-11-20T01:58:54;99658.34;;;2.45;100.00
17072;BME280;7731;50.720;6.912;2022-11-20T02:01:25;99649.06;;;2.80;100.00
17072;BME280;7731;50.720;6.912;2022-11-20T02:03:57;99650.13;;;3.02;100.00
17072;BME280;7731;50.720;6.912;2022-11-20T02:06:34;99644.44;;;2.94;100.00
17072;BME280;7731;50.720;6.912;2022-11-20T02:09:05;99641.66;;;3.03;100.00
17072;BME280;7731;50.720;6.912;2022-11-20T02:11:36;99640.47;;;2.84;100.00
17072;BME280;7731;50.720;6.912;2022-11-20T02:14:09;99650.38;;;2.93;100.00
17072;BME280;7731;50.720;6.912;2022-11-20T02:16:43;99649.47;;;2.63;100.00
17072;BME280;7731;50.720;6.912;2022-11-20T02:19:26;99654.66;;;2.58;100.00
17072;BME280;7731;50.720;6.912;2022-11-20T02:22:02;99655.78;;;2.46;100.00
17072;BME280;7731;50.720;6.912;2022-11-20T02:24:38;99652.41;;;2.46;100.00
17072;BME280;7731;50.720;6.912;2022-11-20T02:27:12;99656.19;;;2.29;100.00
17072;BME280;7731;50.720;6.912;2022-11-20T02:29:47;99652.47;;;2.44;100.00
17072;BME280;7731;50.720;6.912;2022-11-20T02:32:21;99651.75;;;2.38;100.00
17072;BME280;7731;50.720;6.912;2022-11-20T02:34:52;99655.53;;;2.90;100.00
17072;BME280;7731;50.720;6.912;2022-11-20T02:37:23;99642.38;;;2.76;100.00
17072;BME280;7731;50.720;6.912;2022-11-20T02:40:00;99638.66;;;2.89;100.00
17072;BME280;7731;50.720;6.912;2022-11-20T02:42:33;99642.03;;;2.90;100.00
17072;BME280;7731;50.720;6.912;2022-11-20T02:45:05;99632.63;;;2.93;100.00
17072;BME280;7731;50.720;6.912;2022-11-20T02:47:35;99628.78;;;3.11;100.00
17072;BME280;7731;50.720;6.912;2022-11-20T02:50:12;99624.63;;;3.07;100.00
17072;BME280;7731;50.720;6.912;2022-11-20T02:52:42;99633.44;;;3.27;100.00
17072;BME280;7731;50.720;6.912;2022-11-20T02:55:17;99636.59;;;3.03;100.00
17072;BME280;7731;50.720;6.912;2022-11-20T02:57:47;99650.25;;;2.65;100.00
17072;BME280;7731;50.720;6.912;2022-11-20T03:00:20;99657.84;;;2.30;100.00
17072;BME280;7731;50.720;6.912;2022-11-20T03:02:50;99654.00;;;2.14;100.00
17072;BME280;7731;50.720;6.912;2022-11-20T03:05:20;99651.19;;;2.26;100.00
17072;BME280;7731;50.720;6.912;2022-11-20T03:07:51;99645.78;;;2.40;100.00
17072;BME280;7731;50.720;6.912;2022-11-20T03:10:26;99643.22;;;2.42;100.00
17072;BME280;7731;50.720;6.912;2022-11-20T03:12:56;99640.19;;;2.27;100.00
17072;BME280;7731;50.720;6.912;2022-11-20T03:15:26;99641.00;;;2.28;100.00
17072;BME280;7731;50.720;6.912;2022-11-20T03:18:08;99642.13;;;2.16;100.00
17072;BME280;7731;50.720;6.912;2022-11-20T03:20:40;99645.59;;;2.12;100.00
17072;BME280;7731;50.720;6.912;2022-11-20T03:25:44;99643.88;;;2.14;100.00
17072;BME280;7731;50.720;6.912;2022-11-20T03:28:14;99641.22;;;2.19;100.00
17072;BME280;7731;50.720;6.912;2022-11-20T03:30:44;99639.50;;;2.19;100.00
17072;BME280;7731;50.720;6.912;2022-11-20T03:33:14;99630.25;;;2.18;100.00
17072;BME280;7731;50.720;6.912;2022-11-20T03:35:47;99632.75;;;2.20;100.00
17072;BME280;7731;50.720;6.912;2022-11-20T03:38:17;99619.06;;;2.27;100.00
17072;BME280;7731;50.720;6.912;2022-11-20T03:41:02;99621.72;;;2.21;100.00
17072;BME280;7731;50.720;6.912;2022-11-20T03:43:33;99609.09;;;2.19;100.00
17072;BME280;7731;50.720;6.912;2022-11-20T03:46:04;99605.25;;;2.39;100.00
17072;BME280;7731;50.720;6.912;2022-11-20T03:48:37;99600.44;;;2.28;100.00
17072;BME280;7731;50.720;6.912;2022-11-20T03:51:16;99604.47;;;2.37;100.00
17072;BME280;7731;50.720;6.912;2022-11-20T03:53:49;99606.03;;;2.41;100.00
17072;BME280;7731;50.720;6.912;2022-11-20T03:56:25;99598.44;;;2.41;100.00
17072;BME280;7731;50.720;6.912;2022-11-20T03:58:56;99596.34;;;2.58;100.00
17072;BME280;7731;50.720;6.912;2022-11-20T04:01:29;99594.03;;;2.82;100.00
17072;BME280;7731;50.720;6.912;2022-11-20T04:04:00;99592.75;;;2.98;100.00
17072;BME280;7731;50.720;6.912;2022-11-20T04:06:35;99591.56;;;3.10;100.00
17072;BME280;7731;50.720;6.912;2022-11-20T04:09:12;99592.41;;;2.79;100.00
17072;BME280;7731;50.720;6.912;2022-11-20T04:11:53;99591.41;;;2.85;100.00
17072;BME280;7731;50.720;6.912;2022-11-20T04:14:23;99603.69;;;3.00;100.00
17072;BME280;7731;50.720;6.912;2022-11-20T04:16:53;99594.47;;;2.65;100.00
17072;BME280;7731;50.720;6.912;2022-11-20T04:19:24;99598.19;;;2.52;100.00
17072;BME280;7731;50.720;6.912;2022-11-20T04:21:54;99593.97;;;2.52;100.00
17072;BME280;7731;50.720;6.912;2022-11-20T04:24:27;99586.81;;;2.66;100.00
17072;BME280;7731;50.720;6.912;2022-11-20T04:27:06;99594.03;;;2.49;100.00
17072;BME280;7731;50.720;6.912;2022-11-20T04:29:44;99591.25;;;2.58;100.00
17072;BME280;7731;50.720;6.912;2022-11-20T04:32:14;99591.97;;;2.63;100.00
17072;BME280;7731;50.720;6.912;2022-11-20T04:34:47;99600.00;;;2.46;100.00
17072;BME280;7731;50.720;6.912;2022-11-20T04:37:19;99599.19;;;2.46;100.00
17072;BME280;7731;50.720;6.912;2022-11-20T04:39:49;99598.88;;;2.58;100.00
17072;BME280;7731;50.720;6.912;2022-11-20T04:42:27;99587.06;;;2.57;100.00
17072;BME280;7731;50.720;6.912;2022-11-20T04:45:07;99590.59;;;2.50;100.00
17072;BME280;7731;50.720;6.912;2022-11-20T04:47:40;99590.38;;;2.59;100.00
17072;BME280;7731;50.720;6.912;2022-11-20T04:50:10;99591.06;;;2.66;100.00
17072;BME280;7731;50.720;6.912;2022-11-20T04:52:40;99589.13;;;2.76;100.00
17072;BME280;7731;50.720;6.912;2022-11-20T04:55:11;99593.94;;;2.85;100.00
17072;BME280;7731;50.720;6.912;2022-11-20T04:57:43;99587.00;;;2.92;100.00
17072;BME280;7731;50.720;6.912;2022-11-20T05:00:16;99587.63;;;2.67;100.00
17072;BME280;7731;50.720;6.912;2022-11-20T05:02:52;99589.41;;;2.65;100.00
17072;BME280;7731;50.720;6.912;2022-11-20T05:05:22;99589.31;;;2.68;100.00
17072;BME280;7731;50.720;6.912;2022-11-20T05:07:55;99591.88;;;2.66;100.00
17072;BME280;7731;50.720;6.912;2022-11-20T05:10:26;99593.16;;;2.83;100.00
17072;BME280;7731;50.720;6.912;2022-11-20T05:13:00;99589.41;;;2.96;100.00
17072;BME280;7731;50.720;6.912;2022-11-20T05:15:30;99592.56;;;2.73;100.00
17072;BME280;7731;50.720;6.912;2022-11-20T05:18:03;99584.03;;;2.76;100.00
17072;BME280;7731;50.720;6.912;2022-11-20T05:20:34;99598.03;;;2.58;100.00
17072;BME280;7731;50.720;6.912;2022-11-20T05:23:05;99593.59;;;2.31;100.00
17072;BME280;7731;50.720;6.912;2022-11-20T05:25:36;99591.00;;;2.35;100.00
17072;BME280;7731;50.720;6.912;2022-11-20T05:28:10;99590.84;;;2.41;100.00
17072;BME280;7731;50.720;6.912;2022-11-20T05:30:44;99592.00;;;2.29;100.00
17072;BME280;7731;50.720;6.912;2022-11-20T05:33:14;99583.38;;;2.35;100.00
17072;BME280;7731;50.720;6.912;2022-11-20T05:35:45;99589.50;;;2.27;100.00
17072;BME280;7731;50.720;6.912;2022-11-20T05:38:15;99595.34;;;2.29;100.00
17072;BME280;7731;50.720;6.912;2022-11-20T05:40:46;99595.84;;;2.44;100.00
17072;BME280;7731;50.720;6.912;2022-11-20T05:43:21;99605.91;;;2.47;100.00
17072;BME280;7731;50.720;6.912;2022-11-20T05:45:54;99592.44;;;2.45;100.00
17072;BME280;7731;50.720;6.912;2022-11-20T05:48:24;99597.28;;;2.54;100.00
17072;BME280;7731;50.720;6.912;2022-11-20T05:50:57;99605.66;;;2.56;100.00
17072;BME280;7731;50.720;6.912;2022-11-20T05:53:28;99599.78;;;2.56;100.00
17072;BME280;7731;50.720;6.912;2022-11-20T05:55:59;99595.59;;;2.53;100.00
17072;BME280;7731;50.720;6.912;2022-11-20T05:58:33;99595.47;;;2.58;100.00
17072;BME280;7731;50.720;6.912;2022-11-20T06:01:06;99591.34;;;2.55;100.00
17072;BME280;7731;50.720;6.912;2022-11-20T06:03:47;99592.13;;;2.57;100.00
17072;BME280;7731;50.720;6.912;2022-11-20T06:06:22;99603.94;;;2.58;100.00
17072;BME280;7731;50.720;6.912;2022-11-20T06:08:54;99608.25;;;2.55;100.00
17072;BME280;7731;50.720;6.912;2022-11-20T06:11:26;99603.88;;;2.61;100.00
17072;BME280;7731;50.720;6.912;2022-11-20T06:13:58;99596.88;;;2.70;100.00
17072;BME280;7731;50.720;6.912;2022-11-20T06:16:28;99596.72;;;3.07;100.00
17072;BME280;7731;50.720;6.912;2022-11-20T06:18:58;99593.84;;;3.21;100.00
17072;BME280;7731;50.720;6.912;2022-11-20T06:21:29;99596.16;;;2.97;100.00
17072;BME280;7731;50.720;6.912;2022-11-20T06:24:05;99596.66;;;2.79;100.00
17072;BME280;7731;50.720;6.912;2022-11-20T06:26:38;99601.72;;;2.79;100.00
17072;BME280;7731;50.720;6.912;2022-11-20T06:29:11;99597.63;;;3.06;100.00
17072;BME280;7731;50.720;6.912;2022-11-20T06:31:44;99593.31;;;3.39;100.00
17072;BME280;7731;50.720;6.912;2022-11-20T06:34:17;99593.06;;;3.49;100.00
17072;BME280;7731;50.720;6.912;2022-11-20T06:36:47;99599.13;;;3.12;100.00
17072;BME280;7731;50.720;6.912;2022-11-20T06:39:18;99606.53;;;2.88;100.00
17072;BME280;7731;50.720;6.912;2022-11-20T06:41:51;99603.13;;;3.20;100.00
17072;BME280;7731;50.720;6.912;2022-11-20T06:44:28;99609.69;;;2.96;100.00
17072;BME280;7731;50.720;6.912;2022-11-20T06:47:01;99616.22;;;3.07;100.00
17072;BME280;7731;50.720;6.912;2022-11-20T06:49:31;99618.84;;;2.71;100.00
17072;BME280;7731;50.720;6.912;2022-11-20T06:52:05;99610.50;;;2.65;100.00
17072;BME280;7731;50.720;6.912;2022-11-20T06:54:38;99609.47;;;3.06;100.00
17072;BME280;7731;50.720;6.912;2022-11-20T06:57:08;99615.25;;;3.11;100.00
17072;BME280;7731;50.720;6.912;2022-11-20T06:59:41;99620.88;;;3.22;100.00
17072;BME280;7731;50.720;6.912;2022-11-20T07:02:11;99618.78;;;3.36;100.00
17072;BME280;7731;50.720;6.912;2022-11-20T07:04:46;99626.44;;;3.35;100.00
17072;BME280;7731;50.720;6.912;2022-11-20T07:07:20;99633.59;;;2.89;100.00
17072;BME280;7731;50.720;6.912;2022-11-20T07:09:50;99636.44;;;2.77;100.00
17072;BME280;7731;50.720;6.912;2022-11-20T07:12:22;99637.63;;;2.63;100.00
17072;BME280;7731;50.720;6.912;2022-11-20T07:14:58;99639.38;;;2.61;100.00
17072;BME280;7731;50.720;6.912;2022-11-20T07:17:28;99641.16;;;2.91;100.00
17072;BME280;7731;50.720;6.912;2022-11-20T07:19:58;99645.00;;;2.73;100.00
17072;BME280;7731;50.720;6.912;2022-11-20T07:22:31;99647.69;;;2.66;100.00
17072;BME280;7731;50.720;6.912;2022-11-20T07:25:05;99641.63;;;2.72;100.00
17072;BME280;7731;50.720;6.912;2022-11-20T07:27:45;99655.34;;;2.65;100.00
17072;BME280;7731;50.720;6.912;2022-11-20T07:30:27;99647.84;;;2.60;100.00
17072;BME280;7731;50.720;6.912;2022-11-20T07:33:00;99645.34;;;2.59;100.00
17072;BME280;7731;50.720;6.912;2022-11-20T07:35:37;99650.69;;;2.81;100.00
17072;BME280;7731;50.720;6.912;2022-11-20T07:38:07;99646.00;;;2.65;100.00
17072;BME280;7731;50.720;6.912;2022-11-20T07:40:41;99641.47;;;2.78;100.00
17072;BME280;7731;50.720;6.912;2022-11-20T07:43:11;99643.91;;;2.83;100.00
17072;BME280;7731;50.720;6.912;2022-11-20T07:45:44;99643.97;;;2.80;100.00
17072;BME280;7731;50.720;6.912;2022-11-20T07:48:17;99635.00;;;2.99;100.00
17072;BME280;7731;50.720;6.912;2022-11-20T07:50:48;99642.97;;;2.85;100.00
17072;BME280;7731;50.720;6.912;2022-11-20T07:53:19;99647.03;;;2.93;100.00
17072;BME280;7731;50.720;6.912;2022-11-20T07:55:53;99650.69;;;2.81;100.00
17072;BME280;7731;50.720;6.912;2022-11-20T07:58:33;99651.44;;;2.86;100.00
17072;BME280;7731;50.720;6.912;2022-11-20T08:01:08;99655.63;;;2.87;100.00
17072;BME280;7731;50.720;6.912;2022-11-20T08:03:39;99647.22;;;2.85;100.00
17072;BME280;7731;50.720;6.912;2022-11-20T08:06:09;99653.66;;;2.98;100.00
17072;BME280;7731;50.720;6.912;2022-11-20T08:08:42;99646.75;;;3.03;100.00
17072;BME280;7731;50.720;6.912;2022-11-20T08:11:12;99631.50;;;3.03;100.00
17072;BME280;7731;50.720;6.912;2022-11-20T08:13:55;99637.47;;;3.64;100.00
17072;BME280;7731;50.720;6.912;2022-11-20T08:16:42;99638.84;;;3.46;100.00
17072;BME280;7731;50.720;6.912;2022-11-20T08:19:14;99638.66;;;2.89;100.00
17072;BME280;7731;50.720;6.912;2022-11-20T08:21:47;99639.44;;;2.91;100.00
17072;BME280;7731;50.720;6.912;2022-11-20T08:24:17;99638.97;;;3.10;100.00
17072;BME280;7731;50.720;6.912;2022-11-20T08:26:47;99639.16;;;3.65;100.00
17072;BME280;7731;50.720;6.912;2022-11-20T08:29:23;99636.47;;;3.39;100.00
17072;BME280;7731;50.720;6.912;2022-11-20T08:31:58;99637.28;;;4.00;100.00
17072;BME280;7731;50.720;6.912;2022-11-20T08:34:32;99627.97;;;4.27;100.00
17072;BME280;7731;50.720;6.912;2022-11-20T08:37:09;99636.84;;;4.14;100.00
17072;BME280;7731;50.720;6.912;2022-11-20T08:39:39;99639.78;;;4.28;100.00
17072;BME280;7731;50.720;6.912;2022-11-20T08:42:10;99644.72;;;4.06;100.00
17072;BME280;7731;50.720;6.912;2022-11-20T08:44:43;99640.63;;;4.28;100.00
17072;BME280;7731;50.720;6.912;2022-11-20T08:47:19;99643.84;;;4.34;100.00
17072;BME280;7731;50.720;6.912;2022-11-20T08:49:49;99643.38;;;4.21;100.00
17072;BME280;7731;50.720;6.912;2022-11-20T08:52:19;99641.75;;;4.20;100.00
17072;BME280;7731;50.720;6.912;2022-11-20T08:54:49;99640.16;;;4.16;100.00
17072;BME280;7731;50.720;6.912;2022-11-20T08:57:20;99640.84;;;4.47;100.00
17072;BME280;7731;50.720;6.912;2022-11-20T08:59:50;99636.84;;;4.40;100.00
17072;BME280;7731;50.720;6.912;2022-11-20T09:02:39;99639.28;;;4.43;100.00
17072;BME280;7731;50.720;6.912;2022-11-20T09:05:12;99642.75;;;4.14;100.00
17072;BME280;7731;50.720;6.912;2022-11-20T09:07:51;99644.09;;;4.26;100.00
17072;BME280;7731;50.720;6.912;2022-11-20T09:10:21;99648.22;;;3.73;100.00
17072;BME280;7731;50.720;6.912;2022-11-20T09:12:51;99645.34;;;4.13;100.00
17072;BME280;7731;50.720;6.912;2022-11-20T09:15:34;99633.88;;;4.27;100.00
17072;BME280;7731;50.720;6.912;2022-11-20T09:18:07;99642.13;;;4.07;100.00
17072;BME280;7731;50.720;6.912;2022-11-20T09:20:37;99639.28;;;4.43;100.00
17072;BME280;7731;50.720;6.912;2022-11-20T09:23:08;99636.06;;;4.38;100.00
17072;BME280;7731;50.720;6.912;2022-11-20T09:25:38;99629.31;;;4.64;100.00
17072;BME280;7731;50.720;6.912;2022-11-20T09:28:11;99619.28;;;4.33;100.00
17072;BME280;7731;50.720;6.912;2022-11-20T09:30:44;99619.41;;;5.05;100.00
17072;BME280;7731;50.720;6.912;2022-11-20T09:33:17;99612.34;;;4.88;100.00
17072;BME280;7731;50.720;6.912;2022-11-20T09:35:47;99612.06;;;4.72;100.00
17072;BME280;7731;50.720;6.912;2022-11-20T09:38:24;99610.13;;;5.04;100.00
17072;BME280;7731;50.720;6.912;2022-11-20T09:41:05;99617.72;;;5.53;97.19
17072;BME280;7731;50.720;6.912;2022-11-20T09:43:51;99614.19;;;5.33;98.95
17072;BME280;7731;50.720;6.912;2022-11-20T09:46:35;99614.13;;;5.35;98.23
17072;BME280;7731;50.720;6.912;2022-11-20T09:49:28;99620.22;;;5.54;96.03
17072;BME280;7731;50.720;6.912;2022-11-20T09:52:18;99616.91;;;5.29;100.00
17072;BME280;7731;50.720;6.912;2022-11-20T09:54:54;99618.00;;;6.13;94.88
17072;BME280;7731;50.720;6.912;2022-11-20T09:57:34;99611.84;;;7.01;94.20
17072;BME280;7731;50.720;6.912;2022-11-20T10:00:10;99629.47;;;6.03;94.39
17072;BME280;7731;50.720;6.912;2022-11-20T10:02:47;99611.56;;;6.88;88.93
17072;BME280;7731;50.720;6.912;2022-11-20T10:05:28;99617.13;;;6.77;87.46
17072;BME280;7731;50.720;6.912;2022-11-20T10:08:12;99623.00;;;6.16;93.68
17072;BME280;7731;50.720;6.912;2022-11-20T10:10:50;99608.81;;;6.93;86.63
17072;BME280;7731;50.720;6.912;2022-11-20T10:13:39;99604.28;;;6.58;87.32
17072;BME280;7731;50.720;6.912;2022-11-20T10:16:26;99605.34;;;5.66;97.07
17072;BME280;7731;50.720;6.912;2022-11-20T10:19:35;99595.69;;;5.74;94.32
17072;BME280;7731;50.720;6.912;2022-11-20T10:22:37;99594.19;;;5.46;96.63
17072;BME280;7731;50.720;6.912;2022-11-20T10:25:15;99593.53;;;5.41;98.84
17072;BME280;7731;50.720;6.912;2022-11-20T10:28:16;99588.41;;;4.94;99.61
17072;BME280;7731;50.720;6.912;2022-11-20T10:31:00;99580.69;;;4.46;100.00
17072;BME280;7731;50.720;6.912;2022-11-20T10:33:45;99579.59;;;5.04;100.00
17072;BME280;7731;50.720;6.912;2022-11-20T10:36:44;99568.34;;;4.61;100.00
17072;BME280;7731;50.720;6.912;2022-11-20T10:39:28;99555.94;;;5.24;100.00
17072;BME280;7731;50.720;6.912;2022-11-20T10:42:08;99561.03;;;5.24;100.00
17072;BME280;7731;50.720;6.912;2022-11-20T10:44:49;99551.88;;;5.18;100.00
17072;BME280;7731;50.720;6.912;2022-11-20T10:47:34;99553.56;;;5.19;100.00
17072;BME280;7731;50.720;6.912;2022-11-20T10:50:10;99553.81;;;5.35;99.75
17072;BME280;7731;50.720;6.912;2022-11-20T10:53:03;99540.50;;;5.29;99.42
17072;BME280;7731;50.720;6.912;2022-11-20T10:55:53;99537.88;;;5.52;98.20
17072;BME280;7731;50.720;6.912;2022-11-20T10:58:36;99537.94;;;5.51;99.73
17072;BME280;7731;50.720;6.912;2022-11-20T11:01:16;99544.47;;;5.80;95.11
17072;BME280;7731;50.720;6.912;2022-11-20T11:03:52;99535.53;;;5.70;98.03
17072;BME280;7731;50.720;6.912;2022-11-20T11:06:31;99526.75;;;5.77;95.25
17072;BME280;7731;50.720;6.912;2022-11-20T11:09:17;99523.25;;;5.80;95.91
17072;BME280;7731;50.720;6.912;2022-11-20T11:11:53;99518.28;;;5.32;98.78
17072;BME280;7731;50.720;6.912;2022-11-20T11:14:43;99512.16;;;5.59;100.00
17072;BME280;7731;50.720;6.912;2022-11-20T11:17:27;99505.75;;;5.50;99.95
17072;BME280;7731;50.720;6.912;2022-11-20T11:20:07;99501.59;;;5.24;100.00
17072;BME280;7731;50.720;6.912;2022-11-20T11:22:47;99494.69;;;5.27;100.00
17072;BME280;7731;50.720;6.912;2022-11-20T11:25:27;99490.16;;;5.58;100.00
17072;BME280;7731;50.720;6.912;2022-11-20T11:28:17;99482.91;;;5.69;98.91
17072;BME280;7731;50.720;6.912;2022-11-20T11:30:49;99480.72;;;5.60;100.00
17072;BME280;7731;50.720;6.912;2022-11-20T11:33:22;99480.13;;;5.31;100.00
17072;BME280;7731;50.720;6.912;2022-11-20T11:35:58;99483.75;;;5.47;100.00
17072;BME280;7731;50.720;6.912;2022-11-20T11:38:35;99472.91;;;5.42;100.00
17072;BME280;7731;50.720;6.912;2022-11-20T11:41:24;99474.13;;;5.76;99.05
17072;BME280;7731;50.720;6.912;2022-11-20T11:44:02;99463.59;;;5.41;100.00
17072;BME280;7731;50.720;6.912;2022-11-20T11:46:53;99443.56;;;5.10;100.00
17072;BME280;7731;50.720;6.912;2022-11-20T11:49:25;99456.06;;;4.94;100.00
17072;BME280;7731;50.720;6.912;2022-11-20T11:52:09;99457.50;;;5.23;100.00
17072;BME280;7731;50.720;6.912;2022-11-20T11:54:49;99445.91;;;5.38;100.00
17072;BME280;7731;50.720;6.912;2022-11-20T11:57:41;99440.69;;;5.41;100.00
17072;BME280;7731;50.720;6.912;2022-11-20T12:00:22;99440.06;;;5.57;100.00
17072;BME280;7731;50.720;6.912;2022-11-20T12:03:07;99432.03;;;5.45;100.00
17072;BME280;7731;50.720;6.912;2022-11-20T12:05:44;99419.38;;;5.44;100.00
17072;BME280;7731;50.720;6.912;2022-11-20T12:08:23;99417.78;;;5.62;100.00
17072;BME280;7731;50.720;6.912;2022-11-20T12:11:00;99421.47;;;5.54;100.00
17072;BME280;7731;50.720;6.912;2022-11-20T12:13:51;99418.63;;;6.03;100.00
17072;BME280;7731;50.720;6.912;2022-11-20T12:16:26;99411.84;;;6.63;97.63
17072;BME280;7731;50.720;6.912;2022-11-20T12:18:59;99410.00;;;6.26;97.77
17072;BME280;7731;50.720;6.912;2022-11-20T12:21:43;99405.56;;;6.70;98.51
17072;BME280;7731;50.720;6.912;2022-11-20T12:24:45;99400.09;;;6.96;93.86
17072;BME280;7731;50.720;6.912;2022-11-20T12:27:43;99405.63;;;6.49;95.63
17072;BME280;7731;50.720;6.912;2022-11-20T12:30:18;99403.28;;;6.05;99.61
17072;BME280;7731;50.720;6.912;2022-11-20T12:33:12;99389.56;;;6.07;100.00
17072;BME280;7731;50.720;6.912;2022-11-20T12:36:08;99394.47;;;5.92;100.00
17072;BME280;7731;50.720;6.912;2022-11-20T12:39:21;99375.09;;;6.08;100.00
17072;BME280;7731;50.720;6.912;2022-11-20T12:45:35;99370.72;;;6.31;100.00
17072;BME280;7731;50.720;6.912;2022-11-20T12:48:39;99366.44;;;6.31;100.00
17072;BME280;7731;50.720;6.912;2022-11-20T12:52:02;99365.63;;;6.31;100.00
17072;BME280;7731;50.720;6.912;2022-11-20T12:55:12;99357.63;;;6.38;100.00
17072;BME280;7731;50.720;6.912;2022-11-20T12:57:50;99354.00;;;6.23;100.00
17072;BME280;7731;50.720;6.912;2022-11-20T13:00:24;99353.50;;;6.36;100.00
17072;BME280;7731;50.720;6.912;2022-11-20T13:03:36;99348.56;;;6.12;100.00
17072;BME280;7731;50.720;6.912;2022-11-20T13:06:16;99343.44;;;6.33;100.00
17072;BME280;7731;50.720;6.912;2022-11-20T13:08:53;99344.78;;;6.40;100.00
17072;BME280;7731;50.720;6.912;2022-11-20T13:11:32;99327.16;;;6.54;100.00
17072;BME280;7731;50.720;6.912;2022-11-20T13:14:30;99328.22;;;6.68;100.00
17072;BME280;7731;50.720;6.912;2022-11-20T13:17:25;99323.28;;;6.46;100.00
17072;BME280;7731;50.720;6.912;2022-11-20T13:20:06;99320.75;;;6.82;100.00
17072;BME280;7731;50.720;6.912;2022-11-20T13:22:55;99309.25;;;6.91;100.00
17072;BME280;7731;50.720;6.912;2022-11-20T13:25:28;99306.13;;;6.86;98.74
17072;BME280;7731;50.720;6.912;2022-11-20T13:28:01;99305.63;;;6.41;100.00
17072;BME280;7731;50.720;6.912;2022-11-20T13:30:33;99297.75;;;6.26;100.00
17072;BME280;7731;50.720;6.912;2022-11-20T13:33:08;99297.63;;;6.49;100.00
17072;BME280;7731;50.720;6.912;2022-11-20T13:35:57;99301.66;;;6.16;100.00
17072;BME280;7731;50.720;6.912;2022-11-20T13:38:39;99300.13;;;6.12;100.00
17072;BME280;7731;50.720;6.912;2022-11-20T13:41:10;99301.91;;;6.10;100.00
17072;BME280;7731;50.720;6.912;2022-11-20T13:43:54;99293.16;;;6.16;100.00
17072;BME280;7731;50.720;6.912;2022-11-20T13:46:38;99283.84;;;6.34;100.00
17072;BME280;7731;50.720;6.912;2022-11-20T13:49:25;99280.00;;;6.61;100.00
17072;BME280;7731;50.720;6.912;2022-11-20T13:52:26;99277.97;;;6.51;100.00
17072;BME280;7731;50.720;6.912;2022-11-20T13:55:16;99272.44;;;6.60;100.00
17072;BME280;7731;50.720;6.912;2022-11-20T13:58:07;99267.22;;;6.44;100.00
17072;BME280;7731;50.720;6.912;2022-11-20T14:00:50;99253.78;;;6.21;100.00
17072;BME280;7731;50.720;6.912;2022-11-20T14:03:24;99257.53;;;6.51;100.00
17072;BME280;7731;50.720;6.912;2022-11-20T14:06:26;99245.78;;;6.48;100.00
17072;BME280;7731;50.720;6.912;2022-11-20T14:09:02;99252.31;;;6.54;100.00
17072;BME280;7731;50.720;6.912;2022-11-20T14:11:32;99240.97;;;6.59;100.00